Time;durP1;ratioP1;P1;durP2;ratioP2;P2;SDS_P1;SDS_P2;PMS_P1;PMS_P2;Temp;Humidity;BMP_temperature;BMP_pressure;BME280_temperature;BME280_humidity;BME280_pressure;Samples;Min_cycle;Max_cycle;Signal;HPM_P1;HPM_P2
2021/11/22 00:00:17;;;;;;;2.17;0.45;;;23.60;99.90;;;;;;5042747;28;20029;-72
2021/11/22 00:02:46;;;;;;;3.90;0.65;;;23.60;98.90;;;;;;5043854;28;20028;-74
2021/11/22 00:05:13;;;;;;;5.75;1.13;;;23.50;99.50;;;;;;5035680;28;20033;-72
2021/11/22 00:07:41;;;;;;;3.65;1.02;;;23.50;99.10;;;;;;5047683;28;20399;-72
2021/11/22 00:10:09;;;;;;;5.55;0.40;;;23.40;98.80;;;;;;5045756;28;20098;-73
2021/11/22 00:12:37;;;;;;;5.35;0.82;;;22.90;99.10;;;;;;5037507;28;20029;-72
2021/11/22 00:15:08;;;;;;;4.22;1.13;;;22.40;99.40;;;;;;5037116;28;20127;-72
2021/11/22 00:17:37;;;;;;;2.17;0.68;;;22.20;99.90;;;;;;5046404;28;20037;-73
2021/11/22 00:20:07;;;;;;;4.22;1.13;;;22.30;99.90;;;;;;5038570;28;23108;-73
2021/11/22 00:22:35;;;;;;;4.85;0.88;;;22.30;99.90;;;;;;5040019;28;20768;-73
2021/11/22 00:25:04;;;;;;;5.28;1.10;;;22.10;99.90;;;;;;5047451;28;20021;-72
2021/11/22 00:27:31;;;;;;;2.50;0.65;;;21.80;99.40;;;;;;5039688;28;20387;-72
2021/11/22 00:29:59;;;;;;;4.50;0.60;;;21.50;99.90;;;;;;5040575;28;20060;-73
2021/11/22 00:32:27;;;;;;;4.38;0.85;;;21.50;99.90;;;;;;5040902;28;20037;-72
2021/11/22 00:34:57;;;;;;;3.97;1.27;;;21.60;99.90;;;;;;5041135;28;20400;-72
2021/11/22 00:37:26;;;;;;;4.05;0.75;;;21.60;99.90;;;;;;5039041;28;20037;-74
2021/11/22 00:39:56;;;;;;;6.60;0.90;;;21.50;99.90;;;;;;5033758;28;20183;-73
2021/11/22 00:42:24;;;;;;;4.00;0.80;;;21.40;99.90;;;;;;5040261;28;20034;-74
2021/11/22 00:44:51;;;;;;;2.22;0.65;;;21.30;99.90;;;;;;5044517;28;20021;-73
2021/11/22 00:47:19;;;;;;;11.63;0.85;;;21.30;99.90;;;;;;5049702;28;20144;-74
2021/11/22 00:49:47;;;;;;;4.18;0.63;;;21.50;99.90;;;;;;5048171;28;20017;-74
2021/11/22 00:52:14;;;;;;;5.93;0.40;;;22.10;99.90;;;;;;5050532;28;20802;-73
2021/11/22 00:54:42;;;;;;;3.00;0.50;;;22.50;99.50;;;;;;5050168;28;20021;-74
2021/11/22 00:57:09;;;;;;;6.88;0.68;;;23.20;99.40;;;;;;5048263;28;20038;-74
2021/11/22 00:59:37;;;;;;;6.28;0.70;;;24.10;98.00;;;;;;5049268;28;20488;-72
2021/11/22 01:02:04;;;;;;;2.28;0.50;;;24.40;96.00;;;;;;5042478;28;20099;-73
2021/11/22 01:04:34;;;;;;;9.93;1.42;;;24.90;95.70;;;;;;5046596;28;20022;-73
2021/11/22 01:07:01;;;;;;;6.85;0.65;;;25.20;95.60;;;;;;5045523;28;20048;-73
2021/11/22 01:09:29;;;;;;;7.03;0.52;;;25.50;95.30;;;;;;5048141;28;20027;-73
2021/11/22 01:11:56;;;;;;;6.43;0.60;;;25.70;96.30;;;;;;5040590;28;20039;-73
2021/11/22 01:14:23;;;;;;;2.47;0.50;;;25.50;95.70;;;;;;5043068;28;20021;-72
2021/11/22 01:16:51;;;;;;;4.53;0.50;;;25.20;95.40;;;;;;5043938;28;20579;-71
2021/11/22 01:19:19;;;;;;;5.13;1.27;;;25.00;95.80;;;;;;5041253;28;20030;-73
2021/11/22 01:21:47;;;;;;;5.70;0.68;;;24.60;95.30;;;;;;5043319;28;20021;-72
2021/11/22 01:24:14;;;;;;;3.78;1.10;;;24.00;95.00;;;;;;5047620;28;20033;-73
2021/11/22 01:26:41;;;;;;;4.40;0.80;;;23.40;96.20;;;;;;5048660;28;20021;-72
2021/11/22 01:29:09;;;;;;;5.60;1.35;;;23.30;96.80;;;;;;5049615;28;20032;-72
2021/11/22 01:31:37;;;;;;;3.80;0.50;;;23.50;96.80;;;;;;5047441;28;20064;-73
2021/11/22 01:34:05;;;;;;;4.55;1.40;;;23.90;96.20;;;;;;5049728;28;20056;-71
2021/11/22 01:36:32;;;;;;;5.85;1.00;;;23.90;96.50;;;;;;5048264;28;20040;-73
2021/11/22 01:38:59;;;;;;;2.78;0.65;;;24.50;97.10;;;;;;5049091;28;20020;-72
2021/11/22 01:41:27;;;;;;;5.07;0.45;;;25.20;94.90;;;;;;5037998;28;20025;-72
2021/11/22 01:43:54;;;;;;;5.15;0.82;;;25.50;93.90;;;;;;5046682;28;20025;-72
2021/11/22 01:46:23;;;;;;;2.15;0.68;;;25.30;93.30;;;;;;5035998;28;20065;-73
2021/11/22 01:48:53;;;;;;;7.28;0.43;;;24.50;94.30;;;;;;5041764;28;20439;-73
2021/11/22 01:51:20;;;;;;;7.03;0.85;;;24.10;94.70;;;;;;5038855;28;20069;-73
2021/11/22 01:53:48;;;;;;;4.47;1.38;;;24.40;94.50;;;;;;5040705;28;20216;-74
2021/11/22 01:56:15;;;;;;;2.95;0.45;;;24.80;94.30;;;;;;5048848;28;20480;-75
2021/11/22 01:58:42;;;;;;;4.55;0.70;;;25.20;94.40;;;;;;5043425;28;20021;-72
2021/11/22 02:01:11;;;;;;;3.05;0.55;;;25.40;94.10;;;;;;5045796;28;20083;-74
2021/11/22 02:03:39;;;;;;;3.45;0.60;;;25.50;93.90;;;;;;5045145;28;20029;-72
2021/11/22 02:06:06;;;;;;;2.30;0.55;;;25.70;93.40;;;;;;5050151;28;20031;-72
2021/11/22 02:08:33;;;;;;;3.65;0.88;;;25.80;94.10;;;;;;5049856;28;20039;-72
2021/11/22 02:11:02;;;;;;;3.88;0.40;;;25.90;94.20;;;;;;5044910;28;20025;-76
2021/11/22 02:13:29;;;;;;;2.00;0.57;;;25.80;93.50;;;;;;5050351;28;20029;-74
2021/11/22 02:15:57;;;;;;;1.55;0.52;;;25.70;92.30;;;;;;5051763;28;20138;-72
2021/11/22 02:18:24;;;;;;;5.30;1.05;;;25.50;92.70;;;;;;5052062;28;20037;-72
2021/11/22 02:20:53;;;;;;;3.25;0.60;;;25.50;92.60;;;;;;5051907;28;20040;-74
2021/11/22 02:23:21;;;;;;;2.95;0.55;;;25.30;91.90;;;;;;5050600;28;20112;-74
2021/11/22 02:25:48;;;;;;;6.95;0.70;;;25.00;92.80;;;;;;5049561;28;20025;-73
2021/11/22 02:28:16;;;;;;;6.03;0.77;;;24.60;92.60;;;;;;5051102;28;20029;-72
2021/11/22 02:30:47;;;;;;;7.47;0.70;;;24.30;93.70;;;;;;5046226;28;20060;-72
2021/11/22 02:33:17;;;;;;;4.43;0.52;;;24.00;94.50;;;;;;5044551;28;20511;-71
2021/11/22 02:35:49;;;;;;;8.13;1.13;;;24.20;94.80;;;;;;5046698;28;20430;-72
2021/11/22 02:38:19;;;;;;;6.57;1.92;;;24.20;95.00;;;;;;5047100;28;20032;-72
2021/11/22 02:40:47;;;;;;;13.70;1.00;;;24.10;94.80;;;;;;5050263;28;20025;-73
2021/11/22 02:43:15;;;;;;;7.18;1.73;;;24.10;94.60;;;;;;5052457;28;20436;-74
2021/11/22 02:45:42;;;;;;;4.63;0.95;;;24.00;95.30;;;;;;5046785;28;20029;-73
2021/11/22 02:48:10;;;;;;;3.70;0.40;;;23.80;95.30;;;;;;5052242;28;20028;-72
2021/11/22 02:50:37;;;;;;;7.03;1.15;;;23.40;95.70;;;;;;5048082;28;20033;-73
2021/11/22 02:53:05;;;;;;;4.50;0.50;;;23.30;96.70;;;;;;5048397;28;20438;-73
2021/11/22 02:55:32;;;;;;;8.30;1.58;;;23.20;97.10;;;;;;5049816;28;20357;-73
2021/11/22 02:58:00;;;;;;;3.35;0.68;;;23.10;97.70;;;;;;5042967;28;20041;-73
2021/11/22 03:00:30;;;;;;;3.72;0.60;;;22.80;97.60;;;;;;5044343;28;20036;-73
2021/11/22 03:02:58;;;;;;;4.65;0.80;;;22.90;98.00;;;;;;5045421;28;20419;-73
2021/11/22 03:05:26;;;;;;;3.72;0.80;;;23.10;98.00;;;;;;5048649;28;20476;-73
2021/11/22 03:07:56;;;;;;;5.32;0.82;;;22.90;98.30;;;;;;5050177;28;20033;-73
2021/11/22 03:10:26;;;;;;;3.40;0.70;;;22.90;98.30;;;;;;5048978;28;20077;-73
2021/11/22 03:12:54;;;;;;;3.72;0.50;;;23.10;97.80;;;;;;5051647;28;20044;-73
2021/11/22 03:15:23;;;;;;;4.68;0.70;;;22.80;98.40;;;;;;5049052;28;20056;-72
2021/11/22 03:17:50;;;;;;;2.58;0.88;;;22.50;98.90;;;;;;5047096;28;20032;-73
2021/11/22 03:20:20;;;;;;;5.18;0.82;;;22.30;99.30;;;;;;5044297;28;20035;-72
2021/11/22 03:22:50;;;;;;;4.13;1.30;;;22.10;99.90;;;;;;5049220;28;20383;-72
2021/11/22 03:25:18;;;;;;;8.50;0.88;;;21.90;99.90;;;;;;5050114;28;20025;-72
2021/11/22 03:27:46;;;;;;;2.55;0.45;;;21.60;99.90;;;;;;5047974;28;20033;-72
2021/11/22 03:30:15;;;;;;;2.40;0.55;;;21.60;99.90;;;;;;5048834;28;20049;-73
2021/11/22 03:32:43;;;;;;;8.32;1.30;;;21.70;99.90;;;;;;5052824;28;20372;-73
2021/11/22 03:35:12;;;;;;;2.72;0.50;;;22.10;99.90;;;;;;5049241;28;20033;-73
2021/11/22 03:37:39;;;;;;;6.47;1.42;;;22.40;99.90;;;;;;5052103;28;20475;-74
2021/11/22 03:40:08;;;;;;;5.95;1.30;;;22.70;99.90;;;;;;5034412;28;20076;-73
2021/11/22 03:42:53;;;;;;;3.85;0.90;;;22.80;99.90;;;;;;5052550;28;20029;-73
2021/11/22 03:45:21;;;;;;;5.37;0.40;;;23.00;99.90;;;;;;5037962;28;20052;-73
2021/11/22 03:47:49;;;;;;;5.75;1.05;;;23.30;99.90;;;;;;5044204;28;20028;-73
2021/11/22 03:50:16;;;;;;;3.13;0.43;;;23.40;99.80;;;;;;5050938;28;20361;-73
2021/11/22 03:52:44;;;;;;;4.55;0.85;;;23.60;99.10;;;;;;5044498;28;20038;-72
2021/11/22 03:55:11;;;;;;;1.55;0.20;;;23.50;97.30;;;;;;5049034;28;20036;-72
2021/11/22 03:57:38;;;;;;;2.45;0.40;;;23.30;97.20;;;;;;5047018;28;20029;-72
2021/11/22 04:00:07;;;;;;;2.60;0.47;;;23.20;97.20;;;;;;5048898;28;20040;-72
2021/11/22 04:02:34;;;;;;;3.88;0.52;;;22.90;97.70;;;;;;5049910;28;20037;-73
2021/11/22 04:05:03;;;;;;;5.47;0.50;;;22.70;97.60;;;;;;5041251;28;20497;-73
2021/11/22 04:07:30;;;;;;;6.25;1.45;;;22.60;98.00;;;;;;5051293;28;20032;-73
2021/11/22 04:09:57;;;;;;;2.70;0.40;;;22.50;97.70;;;;;;5043248;28;20029;-73
2021/11/22 04:12:25;;;;;;;5.03;0.95;;;22.50;97.70;;;;;;5048194;28;20047;-72
2021/11/22 04:14:53;;;;;;;4.95;0.52;;;22.40;97.90;;;;;;5048420;28;20471;-72
2021/11/22 04:17:21;;;;;;;4.38;0.52;;;22.30;98.30;;;;;;5048835;28;20048;-72
2021/11/22 04:19:48;;;;;;;2.85;0.50;;;22.20;98.30;;;;;;5046875;28;20463;-71
2021/11/22 04:22:16;;;;;;;5.53;0.63;;;22.20;98.40;;;;;;5044341;28;20085;-71
2021/11/22 04:24:44;;;;;;;7.20;0.47;;;22.10;98.30;;;;;;5035156;28;20025;-73
2021/11/22 04:27:12;;;;;;;4.00;0.85;;;21.90;98.30;;;;;;5040178;28;20025;-73
2021/11/22 04:29:40;;;;;;;4.53;1.25;;;21.90;98.50;;;;;;5048522;28;20886;-73
2021/11/22 04:32:09;;;;;;;4.72;0.93;;;22.00;98.30;;;;;;5043844;28;20377;-73
2021/11/22 04:34:38;;;;;;;4.30;1.13;;;22.00;98.20;;;;;;5044720;28;20025;-72
2021/11/22 04:37:06;;;;;;;3.83;0.50;;;22.10;97.80;;;;;;5049244;28;20517;-73
2021/11/22 04:39:34;;;;;;;2.90;0.70;;;22.10;98.00;;;;;;5045423;28;20190;-72
2021/11/22 04:42:02;;;;;;;3.47;0.47;;;22.20;98.20;;;;;;5048725;28;20380;-72
2021/11/22 04:44:29;;;;;;;7.80;0.60;;;22.20;98.10;;;;;;5049166;28;20064;-71
2021/11/22 04:46:57;;;;;;;7.32;0.60;;;22.10;97.80;;;;;;5047554;28;20133;-74
2021/11/22 04:49:24;;;;;;;5.55;0.55;;;22.00;98.80;;;;;;5048547;28;20035;-73
2021/11/22 04:51:52;;;;;;;1.80;0.60;;;21.90;98.80;;;;;;5049451;28;20029;-74
2021/11/22 04:54:19;;;;;;;9.93;1.55;;;21.80;98.90;;;;;;5050368;28;20170;-73
2021/11/22 04:56:46;;;;;;;5.30;0.77;;;21.70;99.20;;;;;;5049106;28;20079;-73
2021/11/22 04:59:14;;;;;;;5.13;1.08;;;21.50;99.90;;;;;;5045806;28;20031;-71
2021/11/22 05:01:41;;;;;;;4.10;0.47;;;21.30;99.90;;;;;;5041722;28;20032;-73
2021/11/22 05:04:10;;;;;;;6.22;0.93;;;21.20;99.90;;;;;;5049776;28;20060;-72
2021/11/22 05:06:37;;;;;;;6.20;0.50;;;20.90;99.90;;;;;;5045656;28;20380;-74
2021/11/22 05:09:05;;;;;;;4.97;0.73;;;20.80;99.90;;;;;;5049386;28;20025;-73
2021/11/22 05:11:32;;;;;;;2.58;0.60;;;20.90;99.90;;;;;;5049077;28;20384;-73
2021/11/22 05:13:59;;;;;;;5.85;0.80;;;20.80;99.90;;;;;;5050304;28;20524;-72
2021/11/22 05:16:27;;;;;;;3.40;0.40;;;20.80;99.90;;;;;;5044076;28;20981;-74
2021/11/22 05:18:56;;;;;;;5.25;0.30;;;20.80;99.90;;;;;;5041451;28;20036;-73
2021/11/22 05:21:25;;;;;;;2.83;0.50;;;20.70;99.90;;;;;;5045537;28;20032;-73
2021/11/22 05:23:54;;;;;;;4.13;0.52;;;20.80;99.90;;;;;;5048867;28;20024;-73
2021/11/22 05:26:22;;;;;;;11.52;0.95;;;21.00;99.90;;;;;;5043719;28;20028;-74
2021/11/22 05:28:50;;;;;;;3.08;0.52;;;21.10;99.90;;;;;;5045821;28;20017;-73
2021/11/22 05:31:17;;;;;;;2.75;0.65;;;21.40;99.90;;;;;;5041288;28;20048;-72
2021/11/22 05:33:45;;;;;;;7.80;0.65;;;21.90;99.90;;;;;;5043068;28;20492;-73
2021/11/22 05:36:12;;;;;;;4.45;0.60;;;22.40;99.90;;;;;;5042637;28;20068;-73
2021/11/22 05:38:40;;;;;;;3.30;1.20;;;22.80;99.90;;;;;;5053504;28;20607;-73
2021/11/22 05:41:07;;;;;;;3.35;0.70;;;23.00;98.80;;;;;;5056608;28;20029;-74
2021/11/22 05:43:37;;;;;;;3.20;1.85;;;23.20;98.10;;;;;;5055177;28;20040;-73
2021/11/22 05:46:06;;;;;;;2.15;0.55;;;23.20;98.00;;;;;;5046791;28;20028;-74
2021/11/22 05:48:34;;;;;;;6.43;0.73;;;22.90;98.20;;;;;;5055604;28;20108;-73
2021/11/22 05:51:04;;;;;;;6.93;0.52;;;22.50;98.30;;;;;;5052234;28;20032;-71
2021/11/22 05:53:35;;;;;;;8.00;0.85;;;22.20;98.30;;;;;;5050017;28;20048;-72
2021/11/22 05:56:04;;;;;;;6.57;0.90;;;22.00;98.90;;;;;;5053499;28;20036;-71
2021/11/22 05:58:33;;;;;;;6.65;1.33;;;21.80;98.80;;;;;;5056192;28;20028;-72
2021/11/22 06:01:02;;;;;;;6.05;0.90;;;21.70;99.30;;;;;;5056062;28;20025;-72
2021/11/22 06:03:30;;;;;;;3.90;0.93;;;21.60;99.70;;;;;;5048504;28;20464;-72
2021/11/22 06:05:58;;;;;;;3.47;0.47;;;21.60;99.90;;;;;;5054927;28;20120;-74
2021/11/22 06:08:26;;;;;;;6.13;0.70;;;21.60;99.90;;;;;;5056062;28;20025;-72
2021/11/22 06:10:54;;;;;;;5.90;1.15;;;21.70;99.90;;;;;;5052838;28;20112;-72
2021/11/22 06:13:22;;;;;;;5.32;0.60;;;21.70;99.90;;;;;;5045684;28;20502;-72
2021/11/22 06:15:50;;;;;;;5.88;0.68;;;21.60;99.90;;;;;;5053988;28;20045;-72
2021/11/22 06:18:18;;;;;;;3.42;0.60;;;21.50;99.90;;;;;;5053185;28;20124;-72
2021/11/22 06:20:47;;;;;;;3.45;0.80;;;21.60;99.90;;;;;;5054434;28;20087;-73
2021/11/22 06:23:15;;;;;;;3.65;0.80;;;21.50;99.90;;;;;;5055985;28;20029;-73
2021/11/22 06:25:43;;;;;;;5.70;0.88;;;21.40;99.90;;;;;;5054603;28;20067;-73
2021/11/22 06:28:10;;;;;;;4.32;0.73;;;21.30;99.90;;;;;;5055957;28;20021;-73
2021/11/22 06:30:38;;;;;;;8.43;1.30;;;21.20;99.90;;;;;;5053065;28;20044;-73
2021/11/22 06:33:06;;;;;;;6.55;0.68;;;21.20;99.90;;;;;;5047359;28;20063;-73
2021/11/22 06:35:34;;;;;;;2.05;0.50;;;21.10;99.90;;;;;;5050005;28;20048;-73
2021/11/22 06:38:03;;;;;;;9.02;1.40;;;21.00;99.90;;;;;;5037493;28;20057;-74
2021/11/22 06:40:31;;;;;;;5.75;1.05;;;20.80;99.90;;;;;;5049401;28;20017;-73
2021/11/22 06:42:58;;;;;;;7.65;1.42;;;20.70;99.90;;;;;;5044486;28;20542;-73
2021/11/22 06:45:27;;;;;;;8.02;1.45;;;20.70;99.90;;;;;;5053830;28;20651;-71
2021/11/22 06:47:55;;;;;;;5.93;1.05;;;20.70;99.90;;;;;;5054421;28;20029;-72
2021/11/22 06:50:22;;;;;;;4.70;1.35;;;20.70;99.90;;;;;;5045151;28;20108;-71
2021/11/22 06:52:50;;;;;;;8.95;1.20;;;20.60;99.90;;;;;;5051888;28;20024;-72
2021/11/22 06:55:19;;;;;;;3.78;1.08;;;20.60;99.90;;;;;;5050728;28;20040;-73
2021/11/22 06:57:47;;;;;;;6.57;0.93;;;20.60;99.90;;;;;;5049624;28;20029;-74
2021/11/22 07:00:17;;;;;;;10.48;1.48;;;20.60;99.90;;;;;;5044300;28;20068;-74
2021/11/22 07:02:51;;;;;;;6.20;1.52;;;20.60;99.90;;;;;;5051622;28;20110;-73
2021/11/22 07:05:19;;;;;;;9.07;0.95;;;20.80;99.90;;;;;;5047542;28;20364;-74
2021/11/22 07:07:47;;;;;;;6.35;1.33;;;20.80;99.90;;;;;;5049493;28;20041;-74
2021/11/22 07:10:16;;;;;;;6.07;1.55;;;20.70;99.90;;;;;;5050101;28;20098;-74
2021/11/22 07:12:43;;;;;;;5.90;1.48;;;20.70;99.90;;;;;;5051449;28;20025;-72
2021/11/22 07:15:11;;;;;;;6.13;1.17;;;20.70;99.90;;;;;;5035547;28;20479;-73
2021/11/22 07:17:38;;;;;;;9.10;1.45;;;20.70;99.90;;;;;;5040241;28;20033;-72
2021/11/22 07:20:06;;;;;;;4.88;1.50;;;20.60;99.90;;;;;;5044814;28;20029;-72
2021/11/22 07:22:34;;;;;;;13.20;1.48;;;20.50;99.90;;;;;;5040511;28;20052;-73
2021/11/22 07:25:01;;;;;;;6.05;1.10;;;20.50;99.90;;;;;;5042982;28;20021;-74
2021/11/22 07:27:29;;;;;;;4.55;1.00;;;20.40;99.90;;;;;;5049792;28;20519;-75
2021/11/22 07:29:57;;;;;;;6.10;1.02;;;20.40;99.90;;;;;;5036684;28;20374;-76
2021/11/22 07:32:28;;;;;;;7.80;1.95;;;20.40;99.90;;;;;;5045769;28;20079;-73
2021/11/22 07:34:57;;;;;;;6.18;1.33;;;20.30;99.90;;;;;;5032110;28;20041;-73
2021/11/22 07:37:25;;;;;;;5.90;1.00;;;20.30;99.90;;;;;;5041472;28;20131;-74
2021/11/22 07:39:53;;;;;;;8.65;0.90;;;20.20;99.90;;;;;;5046656;28;21539;-73
2021/11/22 07:42:21;;;;;;;7.78;1.90;;;20.20;99.90;;;;;;5044079;28;20116;-73
2021/11/22 07:44:49;;;;;;;3.97;0.73;;;20.20;99.90;;;;;;5040633;28;20083;-73
2021/11/22 07:47:18;;;;;;;6.72;1.52;;;20.20;99.90;;;;;;5041229;28;20060;-73
2021/11/22 07:49:45;;;;;;;6.93;1.20;;;20.00;99.90;;;;;;5041042;28;20032;-71
2021/11/22 07:52:13;;;;;;;7.45;0.98;;;20.00;99.90;;;;;;5048993;28;20055;-75
2021/11/22 07:54:40;;;;;;;11.18;1.25;;;20.00;99.90;;;;;;5052682;28;20037;-71
2021/11/22 07:57:08;;;;;;;5.85;1.00;;;20.00;99.90;;;;;;5034149;28;20040;-74
2021/11/22 07:59:35;;;;;;;4.95;0.95;;;19.90;99.90;;;;;;5031312;28;20029;-75
2021/11/22 08:02:03;;;;;;;10.60;2.08;;;19.90;99.90;;;;;;5039132;28;20071;-71
2021/11/22 08:04:31;;;;;;;4.32;1.00;;;19.80;99.90;;;;;;5044284;28;20029;-72
2021/11/22 08:07:01;;;;;;;7.32;1.25;;;19.80;99.90;;;;;;5040873;28;20024;-71
2021/11/22 08:09:34;;;;;;;7.25;0.73;;;19.80;99.90;;;;;;5032393;28;20024;-73
2021/11/22 08:14:47;;;;;;;7.65;0.90;;;19.80;99.90;;;;;;5050566;28;20450;-74
2021/11/22 08:17:14;;;;;;;7.93;1.23;;;19.80;99.90;;;;;;5040820;28;20057;-74
2021/11/22 08:19:42;;;;;;;3.33;1.33;;;19.70;99.90;;;;;;5038808;28;20021;-72
2021/11/22 08:22:13;;;;;;;9.45;1.25;;;19.70;99.90;;;;;;5049460;28;20395;-72
2021/11/22 08:24:40;;;;;;;4.68;0.85;;;19.70;99.90;;;;;;5041199;28;20091;-73
2021/11/22 08:27:08;;;;;;;6.15;1.30;;;19.60;99.90;;;;;;5040259;28;20021;-75
2021/11/22 08:29:35;;;;;;;5.53;1.05;;;19.60;99.90;;;;;;5044308;28;20472;-72
2021/11/22 08:32:03;;;;;;;4.53;1.45;;;19.60;99.90;;;;;;5041832;28;20431;-74
2021/11/22 08:34:30;;;;;;;4.85;0.68;;;19.50;99.90;;;;;;5050063;28;20021;-72
2021/11/22 08:36:58;;;;;;;6.60;1.70;;;19.40;99.90;;;;;;5048259;28;20052;-72
2021/11/22 08:39:25;;;;;;;11.82;1.25;;;19.40;99.90;;;;;;5049411;28;20116;-72
2021/11/22 08:41:53;;;;;;;10.90;2.50;;;19.20;99.90;;;;;;5041681;28;20491;-76
2021/11/22 08:44:20;;;;;;;9.73;1.33;;;19.20;99.90;;;;;;5031951;28;20461;-72
2021/11/22 08:46:48;;;;;;;13.25;1.40;;;19.10;99.90;;;;;;5047572;28;20028;-75
2021/11/22 08:49:16;;;;;;;8.43;1.00;;;19.10;99.90;;;;;;5043237;28;20032;-74
2021/11/22 08:51:45;;;;;;;4.57;0.65;;;19.10;99.90;;;;;;5039734;28;20036;-71
2021/11/22 08:54:13;;;;;;;7.13;1.00;;;19.00;99.90;;;;;;5043334;28;20689;-73
2021/11/22 08:56:41;;;;;;;5.40;1.00;;;18.90;99.90;;;;;;5039187;28;20059;-71
2021/11/22 08:59:09;;;;;;;7.07;1.77;;;18.80;99.90;;;;;;5035867;28;20024;-72
2021/11/22 09:01:36;;;;;;;10.57;1.80;;;18.80;99.90;;;;;;5047310;28;20031;-74
2021/11/22 09:04:04;;;;;;;8.05;1.08;;;18.70;99.90;;;;;;5039231;28;20017;-73
2021/11/22 09:06:34;;;;;;;6.53;0.88;;;18.70;99.90;;;;;;5045700;28;20508;-72
2021/11/22 09:09:04;;;;;;;12.63;1.52;;;18.70;99.90;;;;;;5040096;28;20056;-71
2021/11/22 09:11:32;;;;;;;12.10;2.30;;;18.70;99.90;;;;;;5045263;28;20078;-71
2021/11/22 09:14:01;;;;;;;7.93;0.88;;;18.70;99.90;;;;;;5046157;28;20048;-70
2021/11/22 09:16:29;;;;;;;7.03;1.27;;;18.60;99.90;;;;;;5037486;28;20037;-72
2021/11/22 09:18:59;;;;;;;6.68;1.60;;;18.60;99.90;;;;;;5041640;28;20053;-71
2021/11/22 09:21:27;;;;;;;5.72;0.82;;;18.60;99.90;;;;;;5044889;28;20025;-72
2021/11/22 09:23:55;;;;;;;8.90;0.90;;;18.60;99.90;;;;;;5042215;28;20026;-75
2021/11/22 09:26:23;;;;;;;9.95;1.17;;;18.60;99.90;;;;;;5040825;28;20033;-71
2021/11/22 09:28:50;;;;;;;5.03;0.60;;;18.60;99.90;;;;;;5046513;28;20033;-70
2021/11/22 09:31:18;;;;;;;6.32;1.58;;;18.50;99.90;;;;;;5042004;28;20073;-71
2021/11/22 09:33:47;;;;;;;6.90;1.00;;;18.60;99.90;;;;;;5041829;28;20021;-70
2021/11/22 09:36:15;;;;;;;2.83;0.70;;;18.60;99.90;;;;;;5034365;28;20072;-70
2021/11/22 09:38:42;;;;;;;9.23;1.50;;;18.50;99.90;;;;;;5040270;28;20022;-70
2021/11/22 09:41:10;;;;;;;9.10;1.30;;;18.50;99.90;;;;;;5033101;28;20034;-71
2021/11/22 09:43:42;;;;;;;9.77;1.20;;;18.50;99.90;;;;;;5050980;28;20025;-70
2021/11/22 09:46:09;;;;;;;7.35;1.80;;;18.50;99.90;;;;;;5045452;28;20053;-69
2021/11/22 09:48:39;;;;;;;8.00;2.08;;;18.50;99.90;;;;;;5040698;28;20025;-74
2021/11/22 09:51:10;;;;;;;7.07;1.35;;;18.40;99.90;;;;;;5037401;28;20025;-71
2021/11/22 09:53:40;;;;;;;11.60;0.98;;;18.50;99.90;;;;;;5044867;28;20362;-70
2021/11/22 09:56:09;;;;;;;8.52;2.47;;;18.40;99.90;;;;;;5033314;28;20426;-72
2021/11/22 09:58:38;;;;;;;8.13;1.20;;;18.40;99.90;;;;;;5041005;28;20088;-71
2021/11/22 10:01:16;;;;;;;7.97;2.03;;;18.40;99.90;;;;;;5035657;28;20037;-70
2021/11/22 10:04:09;;;;;;;13.77;2.50;;;18.40;99.90;;;;;;5041873;28;20020;-74
2021/11/22 10:06:57;;;;;;;9.85;1.15;;;18.40;99.90;;;;;;5040697;28;20618;-72
2021/11/22 10:09:34;;;;;;;11.57;1.13;;;18.40;99.90;;;;;;5035679;28;20066;-73
2021/11/22 10:12:25;;;;;;;8.93;1.08;;;18.40;99.90;;;;;;5046395;28;20029;-72
2021/11/22 10:14:56;;;;;;;1.48;0.47;;;18.30;99.90;;;;;;5040659;28;20072;-71
2021/11/22 10:17:45;;;;;;;9.93;1.00;;;18.30;99.90;;;;;;5038283;28;20059;-74
2021/11/22 10:20:16;;;;;;;8.50;2.45;;;18.30;99.90;;;;;;5038855;28;20143;-74
2021/11/22 10:22:59;;;;;;;5.85;1.90;;;18.30;99.90;;;;;;5040737;28;20037;-73
2021/11/22 10:25:37;;;;;;;8.52;3.15;;;18.30;99.90;;;;;;5047803;28;20033;-72
2021/11/22 10:28:10;;;;;;;10.50;1.80;;;18.30;99.90;;;;;;5046261;28;20526;-71
2021/11/22 10:30:46;;;;;;;6.60;0.65;;;18.30;99.90;;;;;;5042923;28;20052;-72
2021/11/22 10:33:17;;;;;;;6.45;1.02;;;18.40;99.90;;;;;;5051009;28;20021;-72
2021/11/22 10:35:46;;;;;;;5.85;0.77;;;18.30;99.90;;;;;;5038814;28;20483;-72
2021/11/22 10:38:18;;;;;;;12.57;1.58;;;18.30;99.90;;;;;;5042486;28;20082;-71
2021/11/22 10:40:55;;;;;;;5.20;1.38;;;18.20;99.90;;;;;;5046604;28;20025;-73
2021/11/22 10:43:23;;;;;;;9.05;1.95;;;18.10;99.90;;;;;;5039667;28;20473;-73
2021/11/22 10:45:53;;;;;;;9.43;2.90;;;18.10;99.90;;;;;;5045226;28;20025;-73
2021/11/22 10:48:28;;;;;;;3.60;1.02;;;18.10;99.90;;;;;;5049368;28;20052;-72
2021/11/22 10:51:11;;;;;;;5.90;1.73;;;18.10;99.90;;;;;;5041402;28;20029;-71
2021/11/22 10:53:48;;;;;;;4.32;0.70;;;18.10;99.90;;;;;;5052687;28;20033;-72
2021/11/22 10:56:21;;;;;;;6.95;0.55;;;18.10;99.90;;;;;;5049757;28;20151;-74
2021/11/22 10:58:53;;;;;;;5.95;0.90;;;18.00;99.90;;;;;;5045003;28;20087;-71
2021/11/22 11:01:44;;;;;;;5.93;1.15;;;18.10;99.90;;;;;;5044485;28;20048;-72
2021/11/22 11:04:16;;;;;;;6.97;1.10;;;18.00;99.90;;;;;;5042275;28;20083;-71
2021/11/22 11:06:47;;;;;;;13.38;2.13;;;18.00;99.90;;;;;;5041947;28;20078;-73
2021/11/22 11:09:24;;;;;;;4.68;0.90;;;18.10;99.90;;;;;;5037440;28;20040;-73
2021/11/22 11:12:02;;;;;;;7.90;0.82;;;18.10;99.90;;;;;;5047838;28;20055;-73
2021/11/22 11:14:30;;;;;;;6.63;0.88;;;18.00;99.90;;;;;;5040807;28;20074;-72
2021/11/22 11:17:20;;;;;;;10.25;1.42;;;18.00;99.90;;;;;;5040905;28;20091;-71
2021/11/22 11:19:50;;;;;;;3.92;1.10;;;18.00;99.90;;;;;;5029050;28;20037;-71
2021/11/22 11:22:18;;;;;;;5.40;0.93;;;18.00;99.90;;;;;;5047210;28;20025;-73
2021/11/22 11:24:46;;;;;;;4.72;1.42;;;18.00;99.90;;;;;;5044763;28;20020;-75
2021/11/22 11:27:14;;;;;;;6.43;1.35;;;18.00;99.90;;;;;;5046493;28;20040;-73
2021/11/22 11:29:42;;;;;;;7.85;1.00;;;18.00;99.90;;;;;;5044314;28;20043;-75
2021/11/22 11:32:10;;;;;;;5.53;0.68;;;18.00;99.90;;;;;;5058100;28;20384;-75
2021/11/22 11:34:43;;;;;;;6.60;1.50;;;18.00;99.90;;;;;;5048393;28;20059;-73
2021/11/22 11:37:32;;;;;;;8.20;1.33;;;18.00;99.90;;;;;;5039630;28;20041;-74
2021/11/22 11:40:24;;;;;;;9.23;1.15;;;18.00;99.90;;;;;;5038454;28;20052;-73
2021/11/22 11:43:28;;;;;;;3.97;0.60;;;18.00;99.90;;;;;;5041246;28;20025;-74
2021/11/22 11:46:01;;;;;;;13.48;2.10;;;18.00;99.90;;;;;;5045255;28;20029;-70
2021/11/22 11:49:05;;;;;;;6.97;0.73;;;17.90;99.90;;;;;;5036167;28;20406;-71
2021/11/22 11:51:47;;;;;;;4.72;0.75;;;17.90;99.90;;;;;;5034912;28;20033;-73
2021/11/22 11:54:19;;;;;;;8.10;1.65;;;17.90;99.90;;;;;;5040921;28;20037;-71
2021/11/22 11:56:47;;;;;;;6.38;1.75;;;17.90;99.90;;;;;;5039664;28;20030;-73
2021/11/22 11:59:19;;;;;;;17.80;1.73;;;17.80;99.90;;;;;;5043960;28;20028;-71
2021/11/22 12:02:15;;;;;;;9.77;0.88;;;17.80;99.90;;;;;;5044586;28;20533;-70
2021/11/22 12:04:49;;;;;;;9.70;1.15;;;17.80;99.90;;;;;;5044069;28;20025;-72
2021/11/22 12:07:46;;;;;;;4.07;1.08;;;17.70;99.90;;;;;;5034761;28;20818;-69
2021/11/22 12:10:22;;;;;;;6.40;1.05;;;17.80;99.90;;;;;;5038637;28;20389;-72
2021/11/22 12:12:52;;;;;;;6.78;1.63;;;17.70;99.90;;;;;;5036282;28;20033;-73
2021/11/22 12:15:25;;;;;;;9.77;1.58;;;17.70;99.90;;;;;;5041023;28;20381;-72
2021/11/22 12:17:59;;;;;;;3.90;0.80;;;17.70;99.90;;;;;;5045994;28;20028;-72
2021/11/22 12:20:27;;;;;;;7.13;0.98;;;17.60;99.90;;;;;;5038450;28;20025;-71
2021/11/22 12:23:19;;;;;;;10.80;2.17;;;17.60;99.90;;;;;;5036025;28;20078;-73
2021/11/22 12:25:49;;;;;;;5.20;1.50;;;17.60;99.90;;;;;;5035661;28;20055;-72
2021/11/22 12:28:22;;;;;;;8.07;1.10;;;17.60;99.90;;;;;;5038947;28;20055;-70
2021/11/22 12:31:23;;;;;;;5.45;1.25;;;17.60;99.90;;;;;;5045951;28;20451;-74
2021/11/22 12:34:10;;;;;;;6.65;1.42;;;17.60;99.90;;;;;;5041192;28;20435;-72
2021/11/22 12:36:44;;;;;;;7.07;0.90;;;17.50;99.90;;;;;;5043720;28;20033;-74
2021/11/22 12:39:15;;;;;;;7.95;0.80;;;17.50;99.90;;;;;;5033414;28;20504;-72
2021/11/22 12:41:45;;;;;;;2.95;0.65;;;17.50;99.90;;;;;;5031641;28;20060;-72
2021/11/22 12:44:21;;;;;;;3.88;0.82;;;17.60;99.90;;;;;;5029473;28;20017;-72
2021/11/22 12:46:49;;;;;;;;;;;17.50;99.90;;;;;;5043480;28;20040;-71
2021/11/22 12:49:35;;;;;;;8.50;1.23;;;17.50;99.90;;;;;;5038276;28;19988;-74
2021/11/22 12:52:31;;;;;;;3.20;1.25;;;17.50;99.90;;;;;;5047484;28;20060;-72
2021/11/22 12:55:11;;;;;;;11.13;1.67;;;17.40;99.90;;;;;;5040560;28;20036;-72
2021/11/22 12:57:42;;;;;;;6.47;0.90;;;17.30;99.90;;;;;;5049545;28;20029;-73
2021/11/22 13:00:15;;;;;;;4.35;1.30;;;17.20;99.90;;;;;;5036013;28;20033;-71
2021/11/22 13:02:51;;;;;;;4.28;0.82;;;17.20;99.90;;;;;;5046516;28;20036;-73